Time;durP1;ratioP1;P1;durP2;ratioP2;P2;SDS_P1;SDS_P2;PMS_P1;PMS_P2;Temp;Humidity;BMP_temperature;BMP_pressure;BME280_temperature;BME280_humidity;BME280_pressure;Samples;Min_cycle;Max_cycle;Signal;HPM_P1;HPM_P2
2023/05/21 00:02:03;;;;;;;11.98;3.50;;;36.80;24.10;;;;;;4909135;29;20035;-64
2023/05/21 00:04:33;;;;;;;7.25;3.58;;;36.80;23.30;;;;;;4907460;29;20035;-62
2023/05/21 00:06:59;;;;;;;4.50;1.45;;;36.70;23.20;;;;;;4906181;29;20455;-63
2023/05/21 00:09:26;;;;;;;15.60;8.60;;;36.60;22.90;;;;;;4911458;29;20021;-65
2023/05/21 00:11:53;;;;;;;12.57;3.95;;;36.60;23.20;;;;;;4906373;29;20030;-64
2023/05/21 00:14:19;;;;;;;9.70;2.03;;;36.50;23.30;;;;;;4908555;29;20028;-64
2023/05/21 00:16:45;;;;;;;8.80;1.95;;;36.50;23.50;;;;;;4906912;29;20062;-62
2023/05/21 00:19:12;;;;;;;7.68;1.30;;;36.40;23.60;;;;;;4907030;29;20487;-61
2023/05/21 00:21:39;;;;;;;7.40;1.40;;;36.40;24.90;;;;;;4905387;29;20589;-63
2023/05/21 00:24:06;;;;;;;4.53;1.73;;;36.30;25.00;;;;;;4908730;29;20096;-64
2023/05/21 00:26:33;;;;;;;10.88;1.70;;;36.30;24.90;;;;;;4910673;29;20363;-62
2023/05/21 00:28:59;;;;;;;6.25;2.50;;;36.30;24.60;;;;;;4909427;29;20104;-61
2023/05/21 00:31:26;;;;;;;6.72;1.70;;;36.30;24.40;;;;;;4908764;29;20033;-61
2023/05/21 00:33:52;;;;;;;11.93;1.52;;;36.20;23.10;;;;;;4908036;29;20036;-63
2023/05/21 00:36:22;;;;;;;8.95;1.65;;;36.10;23.80;;;;;;4909747;29;20387;-62
2023/05/21 00:38:49;;;;;;;6.80;1.80;;;36.00;24.00;;;;;;4905859;29;20028;-63
2023/05/21 00:41:16;;;;;;;7.18;1.48;;;36.00;23.60;;;;;;4910022;29;20095;-62
2023/05/21 00:43:45;;;;;;;21.10;2.28;;;36.00;24.00;;;;;;4908374;29;20484;-62
2023/05/21 00:46:18;;;;;;;11.35;2.45;;;36.00;23.50;;;;;;4907946;29;20036;-62
2023/05/21 00:48:45;;;;;;;10.43;2.40;;;35.90;23.30;;;;;;4909601;29;20028;-64
2023/05/21 00:51:13;;;;;;;5.80;2.15;;;35.80;23.30;;;;;;4899345;29;20035;-64
2023/05/21 00:53:40;;;;;;;6.90;1.83;;;35.80;23.70;;;;;;4905319;29;20511;-61
2023/05/21 00:56:07;;;;;;;9.35;2.17;;;35.70;23.00;;;;;;4906168;29;20029;-62
2023/05/21 00:58:34;;;;;;;11.30;2.70;;;35.70;23.00;;;;;;4909962;29;20026;-60
2023/05/21 01:01:05;;;;;;;8.40;1.52;;;35.60;22.70;;;;;;4911563;29;20036;-62
2023/05/21 01:03:37;;;;;;;12.48;1.70;;;35.60;22.70;;;;;;4912090;29;20059;-62
2023/05/21 01:06:08;;;;;;;4.78;1.58;;;35.60;23.40;;;;;;4911494;29;20063;-62
2023/05/21 01:08:37;;;;;;;19.83;8.18;;;35.60;22.90;;;;;;4910833;29;20127;-63
2023/05/21 01:11:05;;;;;;;19.48;9.13;;;35.50;23.50;;;;;;4909520;29;20028;-62
2023/05/21 01:13:33;;;;;;;15.00;2.15;;;35.50;24.20;;;;;;4910167;29;20030;-68
2023/05/21 01:16:00;;;;;;;6.07;1.75;;;35.40;24.60;;;;;;4910122;29;20052;-62
2023/05/21 01:18:27;;;;;;;12.20;2.00;;;35.40;24.70;;;;;;4909694;29;20025;-63
2023/05/21 01:20:53;;;;;;;5.25;1.40;;;35.40;24.60;;;;;;4910674;29;20040;-63
2023/05/21 01:23:20;;;;;;;9.68;1.75;;;35.30;24.50;;;;;;4908322;29;20372;-61
2023/05/21 01:25:47;;;;;;;8.20;1.55;;;35.30;24.60;;;;;;4911527;29;20156;-62
2023/05/21 01:28:14;;;;;;;9.63;2.05;;;35.40;24.50;;;;;;4910371;29;20025;-63
2023/05/21 01:30:42;;;;;;;9.02;1.95;;;35.30;24.50;;;;;;4907727;29;20459;-60
2023/05/21 01:33:37;;;;;;;14.40;1.90;;;35.30;24.60;;;;;;4910874;29;20020;-62
2023/05/21 01:36:22;;;;;;;8.45;2.08;;;35.30;24.80;;;;;;4911777;29;20020;-63
2023/05/21 01:39:01;;;;;;;9.10;2.83;;;35.20;24.60;;;;;;4911721;29;20032;-62
2023/05/21 01:41:32;;;;;;;17.60;1.90;;;35.30;24.90;;;;;;4910166;29;20031;-63
2023/05/21 01:43:59;;;;;;;17.48;2.80;;;35.60;24.70;;;;;;4906754;29;20024;-63
2023/05/21 01:46:32;;;;;;;29.35;8.93;;;35.60;24.70;;;;;;4909751;29;20034;-62
2023/05/21 01:48:59;;;;;;;28.23;9.00;;;35.50;24.90;;;;;;4911595;29;20036;-62
2023/05/21 01:51:27;;;;;;;19.65;8.75;;;35.40;25.10;;;;;;4905566;29;20035;-64
2023/05/21 01:53:53;;;;;;;26.30;9.00;;;35.30;25.20;;;;;;4905076;29;20036;-62
2023/05/21 01:56:24;;;;;;;21.92;8.77;;;35.50;25.10;;;;;;4910660;29;20488;-62
2023/05/21 01:58:51;;;;;;;6.65;2.00;;;35.60;24.70;;;;;;4908383;29;20392;-61
2023/05/21 02:01:19;;;;;;;17.88;6.88;;;35.60;24.60;;;;;;4909813;29;20052;-62
2023/05/21 02:03:45;;;;;;;12.07;6.78;;;35.20;24.70;;;;;;4912386;29;20110;-61
2023/05/21 02:06:11;;;;;;;34.13;5.72;;;34.80;24.90;;;;;;4911284;29;20080;-63
2023/05/21 02:08:38;;;;;;;25.52;8.55;;;34.60;25.20;;;;;;4910782;29;20024;-62
2023/05/21 02:11:04;;;;;;;18.08;4.07;;;34.50;25.50;;;;;;4910776;29;20510;-62
2023/05/21 02:13:31;;;;;;;22.60;8.43;;;34.40;25.70;;;;;;4908157;29;20080;-62
2023/05/21 02:15:57;;;;;;;14.30;5.30;;;34.30;25.90;;;;;;4910268;29;20420;-63
2023/05/21 02:18:25;;;;;;;16.42;5.18;;;34.20;26.20;;;;;;4910125;29;20020;-61
2023/05/21 02:20:51;;;;;;;21.80;5.80;;;34.10;26.20;;;;;;4908566;29;20111;-63
2023/05/21 02:23:17;;;;;;;25.67;5.72;;;33.90;26.30;;;;;;4906479;29;20444;-61
2023/05/21 02:25:44;;;;;;;30.40;9.90;;;33.80;26.50;;;;;;4906315;29;20462;-61
2023/05/21 02:28:11;;;;;;;17.88;6.93;;;33.70;26.70;;;;;;4914814;29;20106;-62
2023/05/21 02:30:37;;;;;;;24.63;8.82;;;33.60;26.80;;;;;;4910330;29;20036;-61
2023/05/21 02:33:04;;;;;;;21.08;8.32;;;33.50;26.90;;;;;;4908891;29;20024;-62
2023/05/21 02:35:31;;;;;;;41.90;9.27;;;33.40;27.70;;;;;;4909655;29;20036;-63
2023/05/21 02:37:57;;;;;;;97.82;15.02;;;33.30;27.30;;;;;;4908701;29;20113;-62
2023/05/21 02:40:24;;;;;;;31.77;9.18;;;33.20;27.70;;;;;;4909343;29;20111;-61
2023/05/21 02:42:50;;;;;;;23.17;8.15;;;33.20;27.60;;;;;;4906418;29;20442;-61
2023/05/21 02:45:17;;;;;;;25.80;7.93;;;33.10;27.70;;;;;;4914177;29;20119;-61
2023/05/21 02:47:43;;;;;;;26.30;8.13;;;33.00;27.90;;;;;;4910556;29;20045;-62
2023/05/21 02:50:09;;;;;;;44.78;7.32;;;33.00;28.10;;;;;;4907100;29;20024;-64
2023/05/21 02:52:36;;;;;;;28.02;9.20;;;32.90;28.30;;;;;;4902053;29;20405;-63
2023/05/21 02:55:02;;;;;;;47.03;7.78;;;32.80;28.30;;;;;;4902288;29;20036;-61
2023/05/21 02:57:29;;;;;;;50.03;5.65;;;32.70;28.60;;;;;;4909661;29;20041;-63
2023/05/21 02:59:55;;;;;;;30.30;6.35;;;32.60;28.70;;;;;;4910355;29;20611;-63
2023/05/21 03:02:22;;;;;;;55.70;6.93;;;32.60;28.90;;;;;;4908994;29;20054;-63
2023/05/21 03:04:50;;;;;;;32.50;7.45;;;32.50;28.80;;;;;;4908707;29;20042;-62
2023/05/21 03:07:19;;;;;;;30.80;5.85;;;32.40;28.70;;;;;;4907685;29;20044;-61
2023/05/21 03:09:46;;;;;;;32.65;6.75;;;32.30;29.10;;;;;;4910316;29;20137;-63
2023/05/21 03:12:12;;;;;;;35.10;7.13;;;32.30;29.00;;;;;;4911131;29;20043;-63
2023/05/21 03:14:38;;;;;;;25.02;6.18;;;32.30;29.00;;;;;;4910245;29;20066;-62
2023/05/21 03:17:06;;;;;;;21.30;4.60;;;32.20;29.10;;;;;;4910793;29;20039;-62
2023/05/21 03:19:34;;;;;;;25.20;4.88;;;32.20;29.20;;;;;;4910814;29;20454;-64
2023/05/21 03:22:02;;;;;;;19.35;4.63;;;32.10;29.30;;;;;;4908190;29;20122;-63
2023/05/21 03:24:31;;;;;;;21.73;4.95;;;32.00;29.40;;;;;;4905982;29;20078;-62
2023/05/21 03:27:00;;;;;;;20.40;4.38;;;31.90;29.50;;;;;;4908127;29;20104;-64
2023/05/21 03:29:27;;;;;;;40.33;4.65;;;31.90;29.60;;;;;;4908809;29;20483;-62
2023/05/21 03:31:54;;;;;;;30.00;3.95;;;31.80;29.60;;;;;;4909134;29;20419;-61
2023/05/21 03:34:21;;;;;;;29.00;4.13;;;31.80;29.80;;;;;;4907823;29;20043;-62
2023/05/21 03:36:47;;;;;;;27.27;4.47;;;31.70;29.80;;;;;;4908085;29;20544;-62
2023/05/21 03:39:14;;;;;;;22.00;4.97;;;31.60;29.80;;;;;;4909601;29;20049;-64
2023/05/21 03:41:41;;;;;;;19.92;4.38;;;31.60;30.00;;;;;;4909673;29;20033;-65
2023/05/21 03:44:07;;;;;;;23.65;4.78;;;31.50;30.20;;;;;;4907581;29;20511;-61
2023/05/21 03:46:34;;;;;;;30.90;4.68;;;31.50;30.30;;;;;;4908059;29;20426;-61
2023/05/21 03:49:01;;;;;;;24.70;5.07;;;31.40;30.50;;;;;;4907755;29;20132;-64
2023/05/21 03:51:29;;;;;;;26.10;4.45;;;31.40;30.80;;;;;;4909332;29;20067;-62
2023/05/21 03:53:56;;;;;;;23.98;4.55;;;31.30;31.00;;;;;;4899299;29;20605;-63
2023/05/21 03:56:23;;;;;;;52.45;5.45;;;31.30;31.20;;;;;;4904287;29;20129;-62
2023/05/21 03:58:49;;;;;;;28.30;3.92;;;31.20;31.40;;;;;;4907704;29;20495;-63
2023/05/21 04:01:16;;;;;;;28.20;5.00;;;31.10;31.70;;;;;;4909877;29;20361;-62
2023/05/21 04:03:42;;;;;;;25.70;4.68;;;31.10;32.30;;;;;;4908424;29;20046;-63
2023/05/21 04:06:09;;;;;;;32.85;4.57;;;31.10;32.50;;;;;;4906877;29;20068;-63
2023/05/21 04:08:36;;;;;;;25.42;4.43;;;31.00;32.90;;;;;;4907247;29;20152;-62
2023/05/21 04:11:03;;;;;;;23.08;4.10;;;31.00;33.20;;;;;;4905350;29;20048;-63
2023/05/21 04:13:29;;;;;;;21.38;3.95;;;30.90;33.60;;;;;;4909132;29;20044;-64
2023/05/21 04:15:56;;;;;;;27.80;3.92;;;30.90;33.90;;;;;;4908920;29;20452;-62
2023/05/21 04:18:24;;;;;;;28.10;4.00;;;30.80;34.20;;;;;;4909898;29;20049;-63
2023/05/21 04:20:51;;;;;;;18.30;3.80;;;30.80;34.50;;;;;;4907616;29;20080;-61
2023/05/21 04:23:17;;;;;;;24.83;4.72;;;30.70;34.80;;;;;;4909521;29;20066;-64
2023/05/21 04:25:44;;;;;;;32.58;4.63;;;30.70;35.20;;;;;;4907964;29;20063;-62
2023/05/21 04:28:10;;;;;;;33.00;7.10;;;30.60;35.40;;;;;;4907700;29;20389;-64
2023/05/21 04:30:37;;;;;;;24.85;4.15;;;30.50;35.80;;;;;;4909827;29;20068;-62
2023/05/21 04:33:03;;;;;;;28.35;4.22;;;30.50;36.10;;;;;;4911010;29;20203;-61
2023/05/21 04:35:30;;;;;;;20.70;3.92;;;30.50;36.40;;;;;;4909682;29;20131;-62
2023/05/21 04:37:56;;;;;;;27.50;4.45;;;30.50;36.70;;;;;;4909878;29;20583;-69
2023/05/21 04:40:23;;;;;;;28.92;5.03;;;30.40;36.90;;;;;;4911538;29;20148;-67
2023/05/21 04:42:50;;;;;;;24.42;4.38;;;30.30;37.20;;;;;;4911507;29;20067;-68
2023/05/21 04:45:17;;;;;;;26.27;4.20;;;30.20;37.30;;;;;;4911635;29;20398;-67
2023/05/21 04:47:43;;;;;;;24.25;4.65;;;30.10;37.50;;;;;;4911086;29;20399;-67
2023/05/21 04:50:10;;;;;;;24.02;4.63;;;30.10;37.60;;;;;;4911659;29;20538;-67
2023/05/21 04:52:39;;;;;;;21.80;4.63;;;30.10;37.80;;;;;;4914733;29;20108;-67
2023/05/21 04:55:06;;;;;;;21.20;4.80;;;30.00;37.90;;;;;;4908503;29;20411;-66
2023/05/21 04:57:33;;;;;;;17.35;5.13;;;30.00;37.80;;;;;;4908645;29;20112;-67
2023/05/21 04:59:59;;;;;;;18.75;5.22;;;29.90;37.90;;;;;;4913336;29;20095;-67
2023/05/21 05:02:25;;;;;;;18.92;4.45;;;29.90;37.90;;;;;;4910898;29;20476;-67
2023/05/21 05:04:52;;;;;;;21.63;4.32;;;29.90;38.10;;;;;;4912700;29;20046;-65
2023/05/21 05:07:18;;;;;;;25.85;5.80;;;29.80;38.20;;;;;;4909043;29;20058;-67
2023/05/21 05:09:45;;;;;;;22.02;4.95;;;29.80;38.30;;;;;;4911024;29;20567;-67
2023/05/21 05:12:11;;;;;;;20.77;5.50;;;29.80;38.40;;;;;;4912118;29;20070;-67
2023/05/21 05:14:37;;;;;;;24.90;5.82;;;29.70;38.40;;;;;;4910945;29;20048;-66
2023/05/21 05:17:06;;;;;;;44.15;8.25;;;29.70;38.20;;;;;;4911334;29;20098;-66
2023/05/21 05:19:33;;;;;;;36.17;8.18;;;29.70;38.20;;;;;;4912208;29;20042;-66
2023/05/21 05:22:00;;;;;;;43.67;8.43;;;29.70;38.30;;;;;;4910820;29;20038;-65
2023/05/21 05:24:26;;;;;;;34.05;8.05;;;29.60;38.30;;;;;;4909631;29;20126;-67
2023/05/21 05:26:53;;;;;;;28.92;8.73;;;29.50;38.40;;;;;;4910742;29;20515;-66
2023/05/21 05:29:19;;;;;;;40.22;11.00;;;29.40;38.40;;;;;;4909381;29;20045;-68
2023/05/21 05:31:46;;;;;;;95.97;12.77;;;29.40;38.50;;;;;;4911422;29;20070;-67
2023/05/21 05:34:12;;;;;;;51.75;11.60;;;29.30;38.50;;;;;;4911028;29;20401;-66
2023/05/21 05:36:38;;;;;;;33.42;11.52;;;29.30;38.50;;;;;;4910726;29;20060;-66
2023/05/21 05:39:05;;;;;;;34.60;10.88;;;29.30;38.70;;;;;;4909182;29;20075;-66
2023/05/21 05:41:31;;;;;;;41.42;12.07;;;29.20;38.80;;;;;;4908937;29;20042;-66
2023/05/21 05:43:58;;;;;;;60.97;12.38;;;29.20;38.90;;;;;;4911025;29;20067;-67
2023/05/21 05:46:24;;;;;;;67.40;13.48;;;29.20;39.00;;;;;;4909679;29;20143;-67
2023/05/21 05:48:50;;;;;;;56.15;13.60;;;29.10;39.10;;;;;;4910710;29;20050;-68
2023/05/21 05:51:17;;;;;;;41.20;12.38;;;29.00;39.20;;;;;;4907707;29;20073;-67
2023/05/21 05:53:43;;;;;;;49.40;13.57;;;29.00;39.60;;;;;;4911246;29;20043;-65
2023/05/21 05:56:10;;;;;;;50.70;14.13;;;28.80;39.90;;;;;;4902855;29;20050;-64
2023/05/21 05:58:36;;;;;;;46.17;12.48;;;28.70;40.00;;;;;;4908702;29;20048;-64
2023/05/21 06:01:02;;;;;;;50.65;12.57;;;28.60;40.20;;;;;;4911253;29;20152;-66
2023/05/21 06:03:29;;;;;;;47.10;13.43;;;28.50;40.60;;;;;;4912663;29;20113;-64
2023/05/21 06:05:55;;;;;;;48.08;14.60;;;28.50;40.70;;;;;;4911026;29;20059;-64
2023/05/21 06:08:22;;;;;;;51.03;13.68;;;28.50;40.90;;;;;;4909085;29;20471;-64
2023/05/21 06:10:48;;;;;;;42.80;13.32;;;28.30;41.00;;;;;;4909158;29;20091;-65
2023/05/21 06:13:14;;;;;;;59.78;16.05;;;28.20;41.50;;;;;;4907037;29;20080;-66
2023/05/21 06:15:44;;;;;;;47.13;13.45;;;28.10;42.00;;;;;;4909947;29;20461;-64
2023/05/21 06:18:10;;;;;;;48.88;13.02;;;28.10;41.60;;;;;;4908140;29;20046;-65
2023/05/21 06:20:36;;;;;;;41.35;12.80;;;28.10;41.60;;;;;;4909120;29;20084;-64
2023/05/21 06:23:03;;;;;;;46.38;12.85;;;28.10;42.40;;;;;;4906323;29;20078;-64
2023/05/21 06:25:30;;;;;;;39.50;11.77;;;28.00;42.30;;;;;;4907474;29;20090;-64
2023/05/21 06:27:57;;;;;;;41.33;11.45;;;28.00;42.40;;;;;;4910359;29;20055;-64
2023/05/21 06:30:23;;;;;;;30.80;11.48;;;27.90;42.90;;;;;;4909373;29;20545;-65
2023/05/21 06:32:49;;;;;;;38.75;10.38;;;27.80;42.90;;;;;;4906709;29;20059;-63
2023/05/21 06:35:16;;;;;;;37.45;10.43;;;27.80;43.30;;;;;;4905642;29;20535;-63
2023/05/21 06:37:42;;;;;;;35.95;10.65;;;27.80;42.60;;;;;;4910336;29;20056;-64
2023/05/21 06:40:09;;;;;;;32.85;9.88;;;27.80;42.50;;;;;;4911874;29;20060;-65
2023/05/21 06:42:36;;;;;;;30.65;12.15;;;27.70;45.00;;;;;;4908370;29;20576;-65
2023/05/21 06:45:02;;;;;;;37.08;11.05;;;27.60;43.20;;;;;;4909189;29;20155;-64
2023/05/21 06:47:29;;;;;;;35.92;9.75;;;27.60;44.20;;;;;;4909189;29;20062;-66
2023/05/21 06:49:55;;;;;;;33.70;9.85;;;27.50;44.30;;;;;;4909261;29;20451;-64
2023/05/21 06:52:22;;;;;;;32.47;9.55;;;27.50;43.60;;;;;;4910906;29;20061;-66
2023/05/21 06:54:48;;;;;;;42.92;9.77;;;27.40;43.70;;;;;;4911651;29;20048;-66
2023/05/21 06:57:15;;;;;;;34.67;9.05;;;27.40;43.20;;;;;;4898828;29;20147;-65
2023/05/21 06:59:42;;;;;;;22.20;7.95;;;27.40;43.30;;;;;;4907793;29;20046;-64
2023/05/21 07:02:08;;;;;;;36.88;8.13;;;27.30;43.10;;;;;;4910289;29;20061;-66
2023/05/21 07:04:35;;;;;;;24.55;7.13;;;27.30;43.60;;;;;;4910698;29;20087;-67
2023/05/21 07:07:05;;;;;;;33.78;8.40;;;27.20;44.60;;;;;;4909860;29;20091;-64
2023/05/21 07:09:31;;;;;;;22.38;7.53;;;27.20;44.20;;;;;;4908194;29;20090;-65
2023/05/21 07:11:58;;;;;;;28.02;7.80;;;27.10;45.30;;;;;;4910792;29;20081;-66
2023/05/21 07:14:25;;;;;;;26.00;8.48;;;27.10;45.00;;;;;;4912011;29;20067;-66
2023/05/21 07:16:52;;;;;;;25.48;7.15;;;27.10;44.70;;;;;;4909078;29;20062;-65
2023/05/21 07:19:18;;;;;;;23.10;7.68;;;27.00;44.60;;;;;;4909013;29;20454;-63
2023/05/21 07:21:45;;;;;;;33.45;9.23;;;27.00;44.90;;;;;;4907419;29;20435;-65
2023/05/21 07:24:14;;;;;;;27.95;10.35;;;26.90;45.50;;;;;;4906625;29;20643;-65
2023/05/21 07:26:41;;;;;;;28.13;9.00;;;26.90;45.70;;;;;;4907948;29;20067;-65
2023/05/21 07:29:08;;;;;;;27.20;8.02;;;26.90;46.10;;;;;;4911164;29;20576;-62
2023/05/21 07:31:34;;;;;;;42.95;7.55;;;26.80;47.50;;;;;;4908682;29;20082;-65
2023/05/21 07:34:01;;;;;;;29.50;8.32;;;26.80;45.60;;;;;;4906447;29;20133;-66
2023/05/21 07:36:28;;;;;;;31.30;8.43;;;26.80;46.40;;;;;;4908262;29;20062;-63
2023/05/21 07:38:54;;;;;;;27.67;8.02;;;26.70;46.10;;;;;;4911334;29;20510;-66
2023/05/21 07:41:21;;;;;;;35.85;8.93;;;26.70;46.10;;;;;;4911048;29;20058;-65
2023/05/21 07:43:48;;;;;;;37.60;7.75;;;26.60;45.40;;;;;;4908307;29;20064;-65
2023/05/21 07:46:14;;;;;;;31.85;8.32;;;26.60;45.30;;;;;;4909824;29;20715;-65
2023/05/21 07:48:40;;;;;;;31.25;8.95;;;26.60;45.10;;;;;;4908219;29;20060;-66
2023/05/21 07:51:07;;;;;;;42.17;9.40;;;26.60;44.70;;;;;;4907532;29;20495;-65
2023/05/21 07:53:33;;;;;;;35.67;8.70;;;26.50;45.20;;;;;;4907902;29;20065;-66
2023/05/21 07:56:00;;;;;;;25.15;9.40;;;26.60;45.40;;;;;;4907724;29;20073;-64
2023/05/21 07:58:26;;;;;;;44.72;9.57;;;26.60;45.40;;;;;;4900347;29;20090;-65
2023/05/21 08:00:53;;;;;;;35.03;8.30;;;26.60;45.30;;;;;;4907631;29;20074;-66
2023/05/21 08:03:19;;;;;;;28.77;8.27;;;26.60;45.00;;;;;;4912598;29;20065;-63
2023/05/21 08:05:49;;;;;;;36.55;7.85;;;26.50;44.80;;;;;;4911852;29;20144;-65
2023/05/21 08:08:17;;;;;;;32.13;7.70;;;26.50;44.80;;;;;;4910976;29;20061;-65
2023/05/21 08:10:44;;;;;;;30.25;7.78;;;26.50;44.60;;;;;;4908831;29;20539;-65
2023/05/21 08:13:15;;;;;;;26.88;7.13;;;26.50;44.70;;;;;;4910611;29;20108;-65
2023/05/21 08:15:42;;;;;;;37.63;8.38;;;26.50;44.90;;;;;;4910842;29;20053;-65
2023/05/21 08:18:08;;;;;;;38.17;8.52;;;26.40;44.90;;;;;;4912491;29;20061;-66
2023/05/21 08:20:35;;;;;;;31.00;10.50;;;26.40;45.50;;;;;;4912412;29;20057;-64
2023/05/21 08:23:01;;;;;;;45.65;12.30;;;26.40;46.30;;;;;;4912361;29;20160;-64
2023/05/21 08:25:28;;;;;;;41.30;11.10;;;26.30;45.80;;;;;;4910545;29;20121;-65
2023/05/21 08:27:55;;;;;;;44.92;10.70;;;26.30;45.60;;;;;;4914331;29;20119;-63
2023/05/21 08:30:21;;;;;;;42.42;10.55;;;26.30;45.30;;;;;;4912357;29;20089;-65
2023/05/21 08:32:48;;;;;;;43.92;10.15;;;26.30;45.30;;;;;;4914560;29;20064;-65
2023/05/21 08:35:15;;;;;;;39.03;11.98;;;26.30;45.40;;;;;;4912333;29;20058;-65
2023/05/21 08:37:41;;;;;;;38.58;9.75;;;26.30;45.70;;;;;;4914787;29;20063;-65
2023/05/21 08:40:10;;;;;;;38.03;9.77;;;26.20;46.80;;;;;;4914093;29;20106;-66
2023/05/21 08:42:44;;;;;;;39.92;10.10;;;26.00;47.20;;;;;;4910701;29;20066;-66
2023/05/21 08:45:16;;;;;;;41.42;10.43;;;26.10;47.40;;;;;;4912299;29;20112;-66
2023/05/21 08:47:43;;;;;;;46.97;10.50;;;26.10;46.90;;;;;;4910986;29;20070;-65
2023/05/21 08:50:13;;;;;;;40.55;10.38;;;25.90;47.10;;;;;;4910972;29;20089;-64
2023/05/21 08:52:40;;;;;;;52.50;10.20;;;25.90;48.00;;;;;;4911073;29;20057;-64
2023/05/21 08:55:07;;;;;;;42.80;10.90;;;25.90;47.20;;;;;;4910497;29;20071;-66
2023/05/21 08:57:35;;;;;;;48.08;11.15;;;25.80;46.80;;;;;;4910944;29;20151;-65
2023/05/21 09:00:03;;;;;;;45.00;10.50;;;25.80;47.00;;;;;;4902762;29;20391;-64
2023/05/21 09:02:33;;;;;;;48.78;11.25;;;25.80;47.80;;;;;;4910472;29;20213;-66
2023/05/21 09:05:02;;;;;;;45.08;9.70;;;25.70;47.50;;;;;;4911784;29;20474;-64
2023/05/21 09:07:30;;;;;;;51.38;11.57;;;25.70;47.30;;;;;;4911209;29;20054;-65
2023/05/21 09:10:07;;;;;;;53.15;11.68;;;25.70;47.70;;;;;;4909971;29;20070;-66
2023/05/21 09:12:33;;;;;;;49.97;9.65;;;25.70;48.00;;;;;;4908006;29;20062;-63
2023/05/21 09:15:01;;;;;;;46.25;9.38;;;26.30;47.20;;;;;;4909067;29;20109;-65
2023/05/21 09:17:27;;;;;;;53.22;10.05;;;26.60;46.30;;;;;;4912302;29;20533;-63
2023/05/21 09:20:14;;;;;;;38.13;8.40;;;26.80;45.90;;;;;;4907307;29;20148;-65
2023/05/21 09:22:45;;;;;;;51.58;8.80;;;26.80;45.80;;;;;;4907720;29;20108;-64
2023/05/21 09:25:15;;;;;;;47.58;9.20;;;26.80;46.00;;;;;;4909000;29;20101;-64
2023/05/21 09:27:41;;;;;;;39.00;7.50;;;26.80;46.00;;;;;;4912181;29;20406;-65
2023/05/21 09:30:13;;;;;;;45.50;7.75;;;26.80;46.30;;;;;;4915012;29;20073;-65
2023/05/21 09:32:40;;;;;;;43.33;6.90;;;26.70;46.80;;;;;;4910221;29;20132;-64
2023/05/21 09:35:14;;;;;;;35.40;7.03;;;26.90;46.90;;;;;;4911089;29;20070;-64
2023/05/21 09:37:46;;;;;;;29.25;7.55;;;26.80;47.00;;;;;;4909170;29;20052;-65
2023/05/21 09:40:17;;;;;;;29.10;6.57;;;26.70;47.20;;;;;;4909992;29;20602;-64
2023/05/21 09:42:48;;;;;;;47.83;6.63;;;26.80;47.30;;;;;;4908297;29;20580;-65
2023/05/21 09:45:25;;;;;;;21.67;5.78;;;26.80;48.40;;;;;;4910641;29;20154;-64
2023/05/21 09:47:54;;;;;;;30.73;6.03;;;26.70;48.80;;;;;;4908327;29;20553;-65
2023/05/21 09:50:28;;;;;;;45.20;6.88;;;26.50;49.00;;;;;;4907950;29;20097;-63
2023/05/21 09:52:55;;;;;;;31.63;6.00;;;26.60;48.50;;;;;;4908481;29;20437;-64
2023/05/21 09:55:25;;;;;;;27.10;5.18;;;26.70;48.40;;;;;;4913011;29;20101;-63
2023/05/21 09:57:52;;;;;;;28.98;5.65;;;26.60;48.70;;;;;;4913106;29;20061;-65
2023/05/21 10:00:26;;;;;;;23.77;5.50;;;26.60;48.40;;;;;;4909641;29;20055;-64
2023/05/21 10:03:00;;;;;;;27.25;5.40;;;26.50;48.90;;;;;;4910531;29;20144;-65
2023/05/21 10:05:29;;;;;;;26.92;5.05;;;26.30;48.80;;;;;;4909615;29;20161;-64
2023/05/21 10:08:00;;;;;;;28.63;5.13;;;26.20;49.20;;;;;;4909813;29;20078;-65
2023/05/21 10:10:28;;;;;;;26.70;5.40;;;26.30;49.30;;;;;;4910548;29;20162;-64
2023/05/21 10:13:03;;;;;;;24.08;5.20;;;26.20;49.50;;;;;;4907549;29;20091;-64
2023/05/21 10:15:37;;;;;;;28.40;5.70;;;26.20;49.50;;;;;;4910205;29;20071;-65
2023/05/21 10:18:03;;;;;;;47.40;5.78;;;25.90;50.50;;;;;;4908567;29;20089;-65
2023/05/21 10:20:30;;;;;;;31.02;5.10;;;25.70;50.50;;;;;;4910259;29;20070;-64
2023/05/21 10:22:58;;;;;;;29.10;5.57;;;25.80;50.50;;;;;;4910408;29;20086;-64
2023/05/21 10:25:25;;;;;;;29.67;5.68;;;25.70;50.50;;;;;;4905426;29;20138;-65
2023/05/21 10:27:54;;;;;;;108.00;7.75;;;25.80;50.40;;;;;;4904393;29;20065;-65
2023/05/21 10:30:22;;;;;;;29.15;5.40;;;25.70;50.60;;;;;;4909430;29;20156;-65
2023/05/21 10:32:49;;;;;;;33.72;5.30;;;25.80;51.10;;;;;;4909070;29;20077;-65
2023/05/21 10:35:16;;;;;;;26.42;4.95;;;25.80;51.60;;;;;;4908447;29;20413;-63
2023/05/21 10:37:46;;;;;;;31.13;5.57;;;25.80;52.20;;;;;;4907994;29;20551;-64
2023/05/21 10:40:13;;;;;;;31.83;6.45;;;25.70;52.80;;;;;;4908116;29;20075;-65
2023/05/21 10:43:10;;;;;;;37.30;5.38;;;25.60;53.50;;;;;;4908878;29;20089;-64
2023/05/21 10:45:58;;;;;;;40.05;5.20;;;25.40;53.90;;;;;;4909162;29;20078;-63
2023/05/21 10:48:45;;;;;;;27.35;5.65;;;25.40;54.80;;;;;;4905635;29;20096;-64
2023/05/21 10:51:27;;;;;;;38.08;5.93;;;25.40;55.10;;;;;;4905857;29;20086;-65
2023/05/21 10:54:12;;;;;;;23.92;5.95;;;25.30;55.60;;;;;;4910544;29;20468;-63
2023/05/21 10:56:43;;;;;;;32.00;6.00;;;25.20;56.30;;;;;;4909175;29;20074;-64
2023/05/21 10:59:38;;;;;;;28.23;5.40;;;25.10;56.80;;;;;;4909400;29;20151;-64
2023/05/21 11:02:06;;;;;;;35.03;6.70;;;25.00;57.20;;;;;;4907614;29;20079;-64
2023/05/21 11:04:38;;;;;;;32.35;7.07;;;25.00;57.50;;;;;;4908003;29;20071;-65
2023/05/21 11:07:05;;;;;;;33.55;6.90;;;25.00;57.90;;;;;;4907962;29;20086;-63
2023/05/21 11:09:31;;;;;;;34.15;6.90;;;24.90;58.00;;;;;;4908180;29;20077;-63
2023/05/21 11:11:59;;;;;;;31.48;7.07;;;24.90;58.50;;;;;;4909352;29;20090;-63
2023/05/21 11:14:35;;;;;;;36.88;7.60;;;24.90;58.70;;;;;;4911336;29;20064;-64
2023/05/21 11:17:05;;;;;;;48.20;9.40;;;24.90;59.00;;;;;;4907867;29;20096;-63
2023/05/21 11:19:42;;;;;;;39.95;9.02;;;24.90;59.20;;;;;;4904953;29;20422;-62
2023/05/21 11:22:23;;;;;;;35.10;9.73;;;24.80;59.30;;;;;;4906038;29;20437;-64
2023/05/21 11:24:50;;;;;;;38.30;9.52;;;24.80;59.80;;;;;;4908432;29;20591;-64
2023/05/21 11:27:36;;;;;;;39.53;10.10;;;24.70;60.20;;;;;;4900041;29;20070;-63
2023/05/21 11:30:07;;;;;;;44.83;9.38;;;24.70;60.60;;;;;;4909165;29;20085;-64
2023/05/21 11:33:00;;;;;;;37.50;9.95;;;24.60;61.00;;;;;;4907076;29;20082;-63
2023/05/21 11:35:29;;;;;;;42.10;9.15;;;24.60;61.30;;;;;;4908197;29;20640;-64
2023/05/21 11:37:56;;;;;;;39.28;9.35;;;24.60;61.60;;;;;;4906871;29;20089;-65
2023/05/21 11:40:28;;;;;;;44.03;9.98;;;24.60;61.80;;;;;;4908402;29;20074;-64
2023/05/21 11:42:56;;;;;;;40.63;9.70;;;24.50;62.00;;;;;;4907832;29;20120;-64
2023/05/21 11:45:27;;;;;;;49.67;11.63;;;24.50;62.40;;;;;;4913939;29;20071;-65
2023/05/21 11:47:55;;;;;;;43.22;10.05;;;24.50;62.20;;;;;;4906669;29;20149;-63
2023/05/21 11:50:21;;;;;;;39.28;10.95;;;24.40;62.40;;;;;;4906821;29;20084;-62
2023/05/21 11:52:49;;;;;;;41.03;11.00;;;24.30;62.70;;;;;;4909638;29;20498;-63
2023/05/21 11:55:20;;;;;;;40.33;10.93;;;24.30;63.00;;;;;;4908743;29;20072;-64
2023/05/21 11:57:47;;;;;;;40.65;11.30;;;24.20;63.50;;;;;;4905752;29;20074;-62
2023/05/21 12:00:15;;;;;;;42.90;11.32;;;24.40;63.70;;;;;;4912001;29;20090;-64
2023/05/21 12:02:55;;;;;;;42.67;10.80;;;24.30;64.10;;;;;;4908810;29;20081;-63
2023/05/21 12:05:22;;;;;;;35.63;9.68;;;24.30;64.40;;;;;;4909810;29;20077;-64
2023/05/21 12:07:49;;;;;;;50.47;9.40;;;24.10;64.90;;;;;;4908376;29;20067;-63
2023/05/21 12:10:15;;;;;;;42.90;10.07;;;24.10;65.20;;;;;;4910361;29;20094;-64
2023/05/21 12:12:42;;;;;;;31.15;9.40;;;24.10;65.50;;;;;;4907477;29;20079;-64
2023/05/21 12:15:10;;;;;;;31.70;8.98;;;24.10;65.80;;;;;;4910027;29;20438;-64
2023/05/21 12:17:37;;;;;;;28.40;7.45;;;24.10;66.80;;;;;;4909086;29;20426;-63
2023/05/21 12:20:07;;;;;;;33.58;7.53;;;24.10;68.90;;;;;;4910863;29;20064;-64
2023/05/21 12:22:33;;;;;;;27.45;7.40;;;23.90;71.00;;;;;;4907274;29;20222;-64
2023/05/21 12:25:00;;;;;;;40.45;7.25;;;24.00;73.40;;;;;;4905925;29;20160;-63
2023/05/21 12:27:27;;;;;;;34.65;7.18;;;23.90;75.00;;;;;;4905748;29;20079;-63
2023/05/21 12:29:54;;;;;;;31.35;7.40;;;23.90;76.80;;;;;;4904018;29;20099;-65
2023/05/21 12:32:21;;;;;;;28.70;7.63;;;23.80;78.60;;;;;;4910112;29;20527;-65
2023/05/21 12:34:53;;;;;;;32.83;8.23;;;23.80;80.20;;;;;;4908068;29;20071;-63
2023/05/21 12:37:26;;;;;;;30.17;8.07;;;23.80;81.50;;;;;;4908052;29;20116;-64
2023/05/21 12:39:54;;;;;;;33.75;7.88;;;23.80;83.60;;;;;;4908541;29;20079;-63
2023/05/21 12:42:33;;;;;;;25.15;7.85;;;23.80;83.50;;;;;;4907931;29;20086;-64